Time;durP1;ratioP1;P1;durP2;ratioP2;P2;SDS_P1;SDS_P2;PMS_P1;PMS_P2;Temp;Humidity;BMP_temperature;BMP_pressure;BME280_temperature;BME280_humidity;BME280_pressure;Samples;Min_cycle;Max_cycle;Signal;HPM_P1;HPM_P2
2021/05/23 00:01:11;;;;;;;1.55;1.45;;;11.10;99.90;;;;;;5107404;28;20295;-68
2021/05/23 00:03:37;;;;;;;1.90;1.80;;;11.10;99.90;;;;;;5106613;28;20208;-68
2021/05/23 00:06:04;;;;;;;2.00;1.90;;;11.00;99.90;;;;;;5103108;28;20326;-68
2021/05/23 00:08:32;;;;;;;2.10;1.90;;;10.90;99.90;;;;;;5107419;28;20660;-68
2021/05/23 00:11:00;;;;;;;1.80;1.70;;;10.90;99.90;;;;;;5107877;28;20290;-67
2021/05/23 00:13:29;;;;;;;3.28;2.55;;;10.90;99.90;;;;;;5107215;28;20568;-68
2021/05/23 00:15:58;;;;;;;2.08;1.98;;;10.80;99.90;;;;;;5104198;28;20195;-68
2021/05/23 00:18:25;;;;;;;3.08;1.52;;;10.90;99.90;;;;;;5102919;28;20204;-68
2021/05/23 00:20:52;;;;;;;1.98;1.88;;;10.90;99.90;;;;;;5088791;28;20288;-68
2021/05/23 00:23:19;;;;;;;2.67;2.47;;;10.90;99.90;;;;;;5099617;28;20290;-68
2021/05/23 00:25:46;;;;;;;1.85;1.75;;;10.80;99.90;;;;;;5101115;28;20390;-68
2021/05/23 00:28:13;;;;;;;2.40;1.92;;;10.80;99.90;;;;;;5095959;28;20249;-68
2021/05/23 00:30:40;;;;;;;2.15;1.88;;;10.90;99.90;;;;;;5103002;28;20303;-67
2021/05/23 00:33:08;;;;;;;2.00;1.80;;;10.80;99.90;;;;;;5100205;28;20207;-68
2021/05/23 00:35:35;;;;;;;1.70;1.60;;;10.90;99.90;;;;;;5100990;28;20231;-68
2021/05/23 00:38:02;;;;;;;1.95;1.73;;;10.80;99.90;;;;;;5104844;28;20202;-68
2021/05/23 00:40:29;;;;;;;2.00;1.90;;;10.90;99.90;;;;;;5105851;28;20208;-68
2021/05/23 00:42:56;;;;;;;1.83;1.73;;;10.80;99.90;;;;;;5092672;28;20299;-68
2021/05/23 00:45:22;;;;;;;1.77;1.67;;;10.80;99.90;;;;;;5103165;28;20230;-68
2021/05/23 00:47:49;;;;;;;1.92;1.83;;;10.80;99.90;;;;;;5103259;28;20311;-68
2021/05/23 00:50:20;;;;;;;1.90;1.80;;;10.80;99.90;;;;;;5105441;28;20218;-68
2021/05/23 00:52:46;;;;;;;3.25;1.67;;;10.80;99.90;;;;;;5105997;28;20206;-68
2021/05/23 00:55:12;;;;;;;2.50;1.95;;;10.80;99.90;;;;;;5102748;28;20249;-68
2021/05/23 00:57:39;;;;;;;2.20;2.10;;;10.80;99.90;;;;;;5098876;28;20196;-68
2021/05/23 01:00:09;;;;;;;1.65;1.55;;;10.80;99.90;;;;;;5100562;28;20294;-67
2021/05/23 01:02:42;;;;;;;1.73;1.63;;;10.70;99.90;;;;;;5098497;28;20209;-68
2021/05/23 01:05:10;;;;;;;1.65;1.55;;;10.80;99.90;;;;;;5100324;28;20198;-68
2021/05/23 01:07:38;;;;;;;3.38;1.80;;;10.90;99.90;;;;;;5107444;28;20211;-67
2021/05/23 01:10:07;;;;;;;2.00;1.90;;;10.80;99.90;;;;;;5106920;28;20290;-68
2021/05/23 01:13:10;;;;;;;1.60;1.35;;;10.70;99.90;;;;;;5105234;28;20295;-68
2021/05/23 01:15:39;;;;;;;2.05;1.85;;;10.80;99.90;;;;;;5095233;28;20364;-68
2021/05/23 01:18:13;;;;;;;2.75;1.80;;;10.80;99.90;;;;;;5105216;28;20818;-68
2021/05/23 01:20:46;;;;;;;1.55;1.45;;;10.80;99.90;;;;;;5105953;28;20203;-68
2021/05/23 01:23:30;;;;;;;1.92;1.83;;;10.80;99.90;;;;;;5100248;28;20656;-68
2021/05/23 01:26:05;;;;;;;1.70;1.60;;;10.70;99.90;;;;;;5096518;28;20333;-68
2021/05/23 01:28:35;;;;;;;1.63;1.60;;;10.80;99.90;;;;;;5103390;28;20268;-68
2021/05/23 01:31:05;;;;;;;2.40;2.00;;;10.80;99.90;;;;;;5101340;28;20192;-68
2021/05/23 01:33:32;;;;;;;1.50;1.40;;;10.70;99.90;;;;;;5106439;28;20211;-68
2021/05/23 01:35:59;;;;;;;1.48;1.20;;;10.80;99.90;;;;;;5102839;28;20236;-68
2021/05/23 01:38:27;;;;;;;1.40;1.40;;;10.80;99.90;;;;;;5106659;28;20676;-68
2021/05/23 01:41:05;;;;;;;1.50;1.40;;;10.70;99.90;;;;;;5103000;28;20538;-68
2021/05/23 01:43:32;;;;;;;4.35;1.60;;;10.70;99.90;;;;;;5098994;28;20215;-68
2021/05/23 01:45:59;;;;;;;1.67;1.40;;;10.70;99.90;;;;;;5103732;28;20232;-68
2021/05/23 01:48:26;;;;;;;1.95;1.85;;;10.70;99.90;;;;;;5101938;28;20265;-68
2021/05/23 01:50:52;;;;;;;1.70;1.60;;;10.70;99.90;;;;;;5100415;28;20220;-68
2021/05/23 01:53:18;;;;;;;3.20;2.03;;;10.70;99.90;;;;;;5101212;28;20199;-68
2021/05/23 01:55:45;;;;;;;2.90;1.52;;;10.70;99.90;;;;;;5100960;28;20315;-68
2021/05/23 01:58:12;;;;;;;1.33;1.23;;;10.70;99.90;;;;;;5106878;28;20294;-66
2021/05/23 02:00:40;;;;;;;1.67;1.58;;;10.70;99.90;;;;;;5102467;28;20280;-67
2021/05/23 02:03:09;;;;;;;1.33;1.23;;;10.70;99.90;;;;;;5107071;28;20302;-67
2021/05/23 02:05:39;;;;;;;1.70;1.60;;;10.60;99.90;;;;;;5105367;28;20306;-67
2021/05/23 02:08:07;;;;;;;1.75;1.65;;;10.70;99.90;;;;;;5098289;28;20670;-67
2021/05/23 02:10:33;;;;;;;1.52;1.45;;;10.80;99.90;;;;;;5105160;28;20298;-67
2021/05/23 02:13:00;;;;;;;1.52;1.42;;;10.80;99.90;;;;;;5106419;28;20202;-67
2021/05/23 02:15:28;;;;;;;1.77;1.48;;;10.80;99.90;;;;;;5100277;28;20203;-67
2021/05/23 02:17:55;;;;;;;1.88;1.60;;;10.80;99.90;;;;;;5105363;28;20291;-67
2021/05/23 02:20:23;;;;;;;1.40;1.30;;;10.70;99.90;;;;;;5105374;28;20622;-67
2021/05/23 02:22:51;;;;;;;2.78;1.48;;;10.70;99.90;;;;;;5104649;28;20196;-67
2021/05/23 02:25:18;;;;;;;1.75;1.65;;;10.70;99.90;;;;;;5100814;28;20235;-67
2021/05/23 02:27:46;;;;;;;1.60;1.50;;;10.70;99.90;;;;;;5104942;28;20361;-67
2021/05/23 02:30:15;;;;;;;1.50;1.38;;;10.70;99.90;;;;;;5100185;28;20229;-67
2021/05/23 02:32:43;;;;;;;1.40;1.40;;;10.70;99.90;;;;;;5104922;28;20562;-67
2021/05/23 02:35:10;;;;;;;1.33;1.23;;;10.70;99.90;;;;;;5105672;28;20204;-67
2021/05/23 02:37:37;;;;;;;1.52;1.42;;;10.70;99.90;;;;;;5106144;28;20214;-67
2021/05/23 02:40:06;;;;;;;1.58;1.48;;;10.60;99.90;;;;;;5100713;28;20231;-67
2021/05/23 02:42:33;;;;;;;1.67;1.35;;;10.60;99.90;;;;;;5102602;28;20215;-67
2021/05/23 02:44:59;;;;;;;2.22;2.03;;;10.60;99.90;;;;;;5104112;28;20200;-67
2021/05/23 02:47:26;;;;;;;1.58;1.38;;;10.60;99.90;;;;;;5098305;28;20763;-67
2021/05/23 02:49:53;;;;;;;1.35;1.25;;;10.50;99.90;;;;;;5104580;28;20203;-68
2021/05/23 02:52:20;;;;;;;0.95;0.95;;;10.30;99.90;;;;;;5109295;28;20738;-68
2021/05/23 02:54:46;;;;;;;1.45;1.35;;;10.10;99.90;;;;;;5105491;28;20200;-67
2021/05/23 02:57:13;;;;;;;1.25;1.25;;;9.90;99.90;;;;;;5109940;28;20250;-68
2021/05/23 02:59:39;;;;;;;1.25;1.20;;;9.80;99.90;;;;;;5109769;28;20206;-68
2021/05/23 03:02:05;;;;;;;1.90;1.00;;;9.60;99.90;;;;;;5105096;28;20224;-68
2021/05/23 03:04:32;;;;;;;1.30;1.20;;;9.50;99.90;;;;;;5103973;28;21034;-68
2021/05/23 03:06:59;;;;;;;1.10;1.10;;;9.40;99.90;;;;;;5109543;28;20574;-68
2021/05/23 03:09:26;;;;;;;1.30;1.20;;;9.40;99.90;;;;;;5108248;28;20210;-68
2021/05/23 03:11:52;;;;;;;0.85;0.85;;;9.30;99.90;;;;;;5105655;28;20227;-68
2021/05/23 03:14:18;;;;;;;0.98;0.98;;;9.30;99.90;;;;;;5108788;28;20231;-68
2021/05/23 03:16:45;;;;;;;2.70;0.82;;;9.20;99.90;;;;;;5103724;28;20204;-68
2021/05/23 03:19:12;;;;;;;0.80;0.80;;;9.20;99.90;;;;;;5106060;28;20745;-68
2021/05/23 03:21:39;;;;;;;0.68;0.68;;;9.10;99.90;;;;;;5109331;28;20212;-68
2021/05/23 03:24:07;;;;;;;0.60;0.60;;;9.10;99.90;;;;;;5101985;28;20215;-67
2021/05/23 03:26:34;;;;;;;0.73;0.73;;;9.00;99.90;;;;;;5104281;28;20233;-67
2021/05/23 03:29:01;;;;;;;1.00;1.00;;;9.10;99.90;;;;;;5109086;28;20286;-67
2021/05/23 03:31:27;;;;;;;1.10;1.10;;;9.00;99.90;;;;;;5109123;28;20247;-67
2021/05/23 03:33:53;;;;;;;1.77;1.23;;;9.10;99.90;;;;;;5107838;28;20318;-67
2021/05/23 03:36:20;;;;;;;0.85;0.85;;;9.20;99.90;;;;;;5108531;28;20204;-67
2021/05/23 03:38:47;;;;;;;0.85;0.85;;;9.10;99.90;;;;;;5107784;28;20202;-67
2021/05/23 03:41:15;;;;;;;0.85;0.85;;;9.10;99.90;;;;;;5104808;28;20204;-67
2021/05/23 03:43:42;;;;;;;1.40;0.90;;;9.00;99.90;;;;;;5107920;28;20199;-67
2021/05/23 03:46:08;;;;;;;1.77;0.90;;;9.10;99.90;;;;;;5102644;28;20300;-67
2021/05/23 03:48:35;;;;;;;0.85;0.80;;;9.10;99.90;;;;;;5100247;28;20214;-67
2021/05/23 03:51:01;;;;;;;0.88;0.88;;;9.10;99.90;;;;;;5108352;28;20287;-68
2021/05/23 03:53:27;;;;;;;0.75;0.75;;;9.10;99.90;;;;;;5108040;28;20256;-67
2021/05/23 03:55:53;;;;;;;1.33;1.23;;;9.10;99.90;;;;;;5107021;28;20290;-67
2021/05/23 03:58:21;;;;;;;1.25;1.13;;;9.10;99.90;;;;;;5108355;28;20684;-67
2021/05/23 04:00:47;;;;;;;1.10;1.00;;;9.20;99.90;;;;;;5107471;28;20217;-68
2021/05/23 04:03:13;;;;;;;1.40;1.30;;;9.20;99.90;;;;;;5107788;28;20298;-67
2021/05/23 04:05:40;;;;;;;0.80;0.80;;;9.10;99.90;;;;;;5107861;28;20208;-67
2021/05/23 04:08:06;;;;;;;1.10;1.10;;;9.20;99.90;;;;;;5097467;28;20204;-67
2021/05/23 04:10:36;;;;;;;1.15;0.77;;;9.20;99.90;;;;;;5108484;28;20199;-67
2021/05/23 04:13:04;;;;;;;0.82;0.82;;;9.20;99.90;;;;;;5106761;28;20207;-67
2021/05/23 04:15:32;;;;;;;1.05;1.05;;;9.20;99.90;;;;;;5103299;28;20218;-67
2021/05/23 04:17:58;;;;;;;0.90;0.90;;;9.20;99.90;;;;;;5104039;28;20377;-67
2021/05/23 04:20:26;;;;;;;0.82;0.82;;;9.20;99.90;;;;;;5105244;28;20661;-67
2021/05/23 04:22:54;;;;;;;1.65;1.00;;;9.20;99.90;;;;;;5105917;28;20534;-67
2021/05/23 04:25:22;;;;;;;0.82;0.82;;;9.20;99.90;;;;;;5099845;28;20227;-67
2021/05/23 04:27:50;;;;;;;2.50;1.00;;;9.30;99.90;;;;;;5105921;28;20318;-67
2021/05/23 04:30:19;;;;;;;1.40;1.30;;;9.30;99.90;;;;;;5107794;28;20295;-67
2021/05/23 04:32:46;;;;;;;1.02;1.02;;;9.20;99.90;;;;;;5103935;28;20209;-67
2021/05/23 04:35:14;;;;;;;1.00;1.00;;;9.30;99.90;;;;;;5107345;28;20663;-67
2021/05/23 04:37:41;;;;;;;1.95;1.33;;;9.30;99.90;;;;;;5107652;28;20303;-67
2021/05/23 04:40:08;;;;;;;4.78;1.15;;;9.30;99.90;;;;;;5101166;28;20211;-67
2021/05/23 04:42:35;;;;;;;0.90;0.90;;;9.40;99.90;;;;;;5101483;28;20212;-67
2021/05/23 04:45:01;;;;;;;1.30;1.30;;;9.50;99.90;;;;;;5107322;28;20304;-67
2021/05/23 04:47:28;;;;;;;1.52;1.20;;;9.50;99.90;;;;;;5107383;28;20274;-68
2021/05/23 04:49:56;;;;;;;3.60;3.25;;;9.50;99.90;;;;;;5106036;28;20199;-67
2021/05/23 04:52:22;;;;;;;1.30;1.20;;;9.50;99.90;;;;;;5106801;28;20200;-67
2021/05/23 04:54:49;;;;;;;1.55;1.20;;;9.60;99.90;;;;;;5107029;28;20200;-67
2021/05/23 04:57:15;;;;;;;1.63;1.20;;;9.60;99.90;;;;;;5101480;28;20639;-67
2021/05/23 04:59:41;;;;;;;0.90;0.90;;;9.70;99.90;;;;;;5097991;28;20206;-67
2021/05/23 05:02:08;;;;;;;1.45;1.38;;;9.70;99.90;;;;;;5095392;28;20215;-67
2021/05/23 05:04:34;;;;;;;1.40;1.30;;;9.80;99.90;;;;;;5103567;28;20200;-67
2021/05/23 05:07:01;;;;;;;1.30;1.30;;;9.80;99.90;;;;;;5104309;28;20272;-67
2021/05/23 05:09:28;;;;;;;1.23;1.23;;;9.80;99.90;;;;;;5106832;28;20272;-67
2021/05/23 05:11:54;;;;;;;1.08;1.08;;;9.80;99.90;;;;;;5104953;28;20386;-68
2021/05/23 05:14:20;;;;;;;1.30;1.20;;;9.90;99.90;;;;;;5101661;28;20272;-68
2021/05/23 05:16:47;;;;;;;1.30;1.20;;;10.00;99.90;;;;;;5106363;28;20633;-67
2021/05/23 05:19:13;;;;;;;1.30;1.30;;;10.00;99.90;;;;;;5097078;28;20204;-67
2021/05/23 05:21:39;;;;;;;2.25;1.40;;;10.00;99.90;;;;;;5107123;28;20644;-67
2021/05/23 05:24:08;;;;;;;1.40;1.30;;;10.10;99.90;;;;;;5104656;28;20206;-67
2021/05/23 05:26:35;;;;;;;1.83;1.30;;;10.20;99.90;;;;;;5103260;28;20354;-67
2021/05/23 05:29:01;;;;;;;1.30;1.20;;;10.30;99.90;;;;;;5107497;28;20218;-68
2021/05/23 05:31:28;;;;;;;1.33;1.25;;;10.30;99.90;;;;;;5103706;28;20196;-67
2021/05/23 05:33:54;;;;;;;1.20;1.20;;;10.30;99.90;;;;;;5103363;28;20207;-68
2021/05/23 05:36:20;;;;;;;1.58;1.50;;;10.30;99.90;;;;;;5105407;28;20243;-68
2021/05/23 05:38:48;;;;;;;0.90;0.90;;;10.40;99.90;;;;;;5107143;28;20196;-68
2021/05/23 05:41:16;;;;;;;1.30;1.30;;;10.40;99.90;;;;;;5101154;28;20204;-68
2021/05/23 05:43:42;;;;;;;1.20;1.20;;;10.60;99.90;;;;;;5106644;28;20287;-68
2021/05/23 05:46:08;;;;;;;1.30;1.20;;;10.60;99.90;;;;;;5099120;28;20227;-67
2021/05/23 05:48:35;;;;;;;1.95;1.08;;;10.70;99.90;;;;;;5101854;28;20195;-68
2021/05/23 05:51:01;;;;;;;2.00;1.90;;;10.70;99.90;;;;;;5100193;28;20196;-68
2021/05/23 05:53:28;;;;;;;2.85;2.00;;;10.70;99.90;;;;;;5100932;28;20846;-67
2021/05/23 05:55:54;;;;;;;2.60;2.30;;;10.70;99.90;;;;;;5100509;28;20605;-71
2021/05/23 05:58:22;;;;;;;5.57;2.85;;;10.80;99.90;;;;;;5104534;28;20294;-71
2021/05/23 06:00:48;;;;;;;2.35;2.00;;;10.90;99.90;;;;;;5099654;28;21053;-70
2021/05/23 06:03:14;;;;;;;1.95;1.70;;;11.00;99.90;;;;;;5097243;28;20509;-71
2021/05/23 06:05:41;;;;;;;2.47;1.90;;;11.00;99.90;;;;;;5105839;28;20207;-71
2021/05/23 06:08:07;;;;;;;1.08;0.98;;;11.20;99.90;;;;;;5106049;28;20290;-71
2021/05/23 06:10:33;;;;;;;1.30;0.80;;;11.30;99.90;;;;;;5108907;27;20290;-71
2021/05/23 06:13:00;;;;;;;1.10;1.10;;;11.30;99.90;;;;;;5104799;28;20381;-71
2021/05/23 06:15:28;;;;;;;1.50;1.40;;;11.20;99.90;;;;;;5106121;28;20295;-71
2021/05/23 06:17:54;;;;;;;0.88;0.88;;;11.10;99.90;;;;;;5105462;28;20294;-70
2021/05/23 06:20:20;;;;;;;1.30;1.30;;;11.10;99.90;;;;;;5103715;28;20724;-69
2021/05/23 06:22:47;;;;;;;1.55;1.45;;;11.20;99.90;;;;;;5099171;28;20206;-70
2021/05/23 06:25:14;;;;;;;1.40;1.40;;;11.10;99.90;;;;;;5105379;28;20295;-69
2021/05/23 06:27:40;;;;;;;2.40;1.23;;;11.10;99.90;;;;;;5103747;28;20264;-69
2021/05/23 06:30:08;;;;;;;1.20;1.20;;;11.30;99.90;;;;;;5100395;28;20199;-69
2021/05/23 06:32:35;;;;;;;1.55;1.17;;;11.50;99.90;;;;;;5105974;28;20253;-70
2021/05/23 06:35:02;;;;;;;1.20;1.20;;;11.70;99.90;;;;;;5109475;28;20587;-70
2021/05/23 06:37:28;;;;;;;1.02;1.00;;;11.90;99.90;;;;;;5109115;28;20647;-69
2021/05/23 06:39:54;;;;;;;1.20;1.10;;;12.10;99.90;;;;;;5107770;28;20290;-69
2021/05/23 06:42:21;;;;;;;1.25;1.15;;;12.40;99.90;;;;;;5109663;28;20204;-70
2021/05/23 06:44:47;;;;;;;0.80;0.80;;;12.60;99.90;;;;;;5109293;28;20217;-70
2021/05/23 06:47:14;;;;;;;1.20;0.75;;;12.70;99.90;;;;;;5102853;28;20232;-70
2021/05/23 06:49:41;;;;;;;0.60;0.60;;;12.90;99.90;;;;;;5108123;28;20577;-70
2021/05/23 06:52:08;;;;;;;1.42;0.88;;;12.90;99.90;;;;;;5109014;28;20706;-70
2021/05/23 06:54:35;;;;;;;0.70;0.70;;;12.90;99.90;;;;;;5109249;28;20845;-69
2021/05/23 06:57:01;;;;;;;0.80;0.80;;;12.90;99.90;;;;;;5108459;28;20237;-69
2021/05/23 06:59:27;;;;;;;1.00;0.90;;;13.00;99.90;;;;;;5108646;28;20760;-69
2021/05/23 07:01:54;;;;;;;1.67;0.90;;;13.10;99.90;;;;;;5106827;28;20195;-69
2021/05/23 07:04:20;;;;;;;1.70;1.05;;;13.90;99.90;;;;;;5104579;28;20210;-69
2021/05/23 07:06:47;;;;;;;0.60;0.60;;;14.40;99.90;;;;;;5108466;28;20230;-69
2021/05/23 07:09:17;;;;;;;0.60;0.60;;;14.50;99.00;;;;;;5109003;28;20210;-69
2021/05/23 07:11:43;;;;;;;0.68;0.68;;;14.90;99.30;;;;;;5107691;28;20203;-69
2021/05/23 07:14:10;;;;;;;1.40;0.70;;;15.50;98.30;;;;;;5109319;28;20252;-69
2021/05/23 07:16:36;;;;;;;1.25;0.60;;;15.90;96.90;;;;;;5106392;28;20258;-69
2021/05/23 07:19:03;;;;;;;0.70;0.70;;;16.00;96.60;;;;;;5106435;28;20203;-69
2021/05/23 07:21:29;;;;;;;0.50;0.50;;;15.70;96.20;;;;;;5108775;28;20290;-68
2021/05/23 07:23:56;;;;;;;0.50;0.50;;;16.30;95.20;;;;;;5106157;28;20206;-69
2021/05/23 07:26:23;;;;;;;0.50;0.47;;;18.80;92.90;;;;;;5108727;28;20236;-69
2021/05/23 07:28:49;;;;;;;0.50;0.50;;;20.70;87.70;;;;;;5108720;28;21243;-69
2021/05/23 07:31:16;;;;;;;0.87;0.37;;;22.10;82.70;;;;;;5108186;28;20633;-68
2021/05/23 07:33:42;;;;;;;0.67;0.60;;;22.80;77.60;;;;;;5108049;28;20648;-69
2021/05/23 07:36:10;;;;;;;0.60;0.50;;;22.90;76.50;;;;;;5108420;28;20752;-69
2021/05/23 07:38:37;;;;;;;0.50;0.50;;;21.60;75.30;;;;;;5108725;28;20628;-70
2021/05/23 07:41:04;;;;;;;1.50;0.60;;;19.90;80.90;;;;;;5107228;28;20633;-69
2021/05/23 07:43:31;;;;;;;0.60;0.60;;;19.30;84.40;;;;;;5108075;28;20778;-69
2021/05/23 07:45:57;;;;;;;0.80;0.80;;;19.20;81.70;;;;;;5106864;28;20661;-69
2021/05/23 07:48:24;;;;;;;1.73;1.00;;;21.20;79.80;;;;;;5108323;28;20625;-70
2021/05/23 07:50:51;;;;;;;0.67;0.63;;;22.60;73.30;;;;;;5106716;28;20728;-70
2021/05/23 07:53:17;;;;;;;0.40;0.40;;;23.30;71.30;;;;;;5108678;28;20630;-69
2021/05/23 07:55:44;;;;;;;0.50;0.50;;;21.50;74.10;;;;;;5108114;28;21657;-70
2021/05/23 07:58:12;;;;;;;0.60;0.60;;;19.60;79.20;;;;;;5107985;28;20709;-68
2021/05/23 08:00:38;;;;;;;1.05;0.57;;;16.80;84.40;;;;;;5108517;28;20732;-69
2021/05/23 08:03:05;;;;;;;0.47;0.47;;;14.40;91.20;;;;;;5107398;28;20217;-68
2021/05/23 08:05:31;;;;;;;0.65;0.45;;;13.00;93.60;;;;;;5107735;28;20199;-68
2021/05/23 08:07:57;;;;;;;0.73;0.55;;;12.10;96.70;;;;;;5107872;28;20230;-68
2021/05/23 08:10:24;;;;;;;0.70;0.70;;;11.60;99.50;;;;;;5108198;28;20307;-68
2021/05/23 08:12:51;;;;;;;1.77;0.45;;;11.20;99.90;;;;;;5107660;28;20195;-68
2021/05/23 08:15:18;;;;;;;0.60;0.60;;;11.00;99.90;;;;;;5107547;28;20204;-69
2021/05/23 08:17:45;;;;;;;1.27;0.77;;;10.90;99.90;;;;;;5107755;28;20263;-68
2021/05/23 08:20:13;;;;;;;0.50;0.50;;;10.80;99.90;;;;;;5106408;28;20196;-68
2021/05/23 08:22:39;;;;;;;1.00;1.00;;;10.90;99.90;;;;;;5106825;28;21040;-68
2021/05/23 08:25:07;;;;;;;1.55;0.80;;;11.10;99.90;;;;;;5106371;28;20397;-69
2021/05/23 08:27:34;;;;;;;1.20;1.02;;;11.20;99.90;;;;;;5104750;28;20687;-69
2021/05/23 08:30:00;;;;;;;1.00;0.88;;;11.70;99.90;;;;;;5107600;28;20752;-68
2021/05/23 08:32:27;;;;;;;0.98;0.98;;;12.40;99.90;;;;;;5107294;28;20204;-68
2021/05/23 08:34:54;;;;;;;1.50;1.40;;;13.50;99.90;;;;;;5105654;28;20200;-68
2021/05/23 08:37:20;;;;;;;2.20;1.23;;;14.50;99.90;;;;;;5107139;28;20287;-68
2021/05/23 08:39:47;;;;;;;1.45;1.00;;;15.80;98.50;;;;;;5106332;28;20236;-68
2021/05/23 08:42:13;;;;;;;1.37;0.83;;;17.30;96.10;;;;;;5102410;28;20204;-69
2021/05/23 08:44:41;;;;;;;0.70;0.60;;;19.40;90.70;;;;;;5103163;28;20621;-69
2021/05/23 08:47:07;;;;;;;2.10;0.57;;;20.10;86.30;;;;;;5105117;28;20767;-69
2021/05/23 08:49:35;;;;;;;0.77;0.77;;;20.30;85.10;;;;;;5104638;28;20728;-69
2021/05/23 08:52:01;;;;;;;1.30;0.87;;;20.90;81.00;;;;;;5107340;28;20725;-69
2021/05/23 08:54:28;;;;;;;0.93;0.90;;;19.80;82.40;;;;;;5104795;28;20643;-68
2021/05/23 08:56:55;;;;;;;0.70;0.60;;;18.70;85.40;;;;;;5100215;28;21001;-68
2021/05/23 08:59:21;;;;;;;0.90;0.90;;;18.00;91.10;;;;;;5105914;28;20740;-68
2021/05/23 09:01:49;;;;;;;1.13;1.10;;;17.20;92.00;;;;;;5105157;28;20704;-68
2021/05/23 09:04:17;;;;;;;1.05;1.05;;;16.40;94.60;;;;;;5100477;28;20200;-68
2021/05/23 09:06:46;;;;;;;0.70;0.70;;;16.10;94.40;;;;;;5102498;28;20274;-68
2021/05/23 09:09:14;;;;;;;0.80;0.80;;;16.30;95.40;;;;;;5105476;28;20210;-68
2021/05/23 09:11:52;;;;;;;1.33;0.75;;;16.70;93.20;;;;;;5101214;28;20195;-68
2021/05/23 09:14:34;;;;;;;0.80;0.80;;;18.00;91.00;;;;;;5100071;28;20334;-68
2021/05/23 09:17:00;;;;;;;0.70;0.70;;;18.20;88.60;;;;;;5098332;28;20664;-68
2021/05/23 09:19:27;;;;;;;2.40;0.80;;;17.50;89.00;;;;;;5097040;28;20657;-68
2021/05/23 09:21:54;;;;;;;1.37;1.00;;;18.20;88.90;;;;;;5098602;28;20630;-68
2021/05/23 09:24:21;;;;;;;0.77;0.73;;;19.20;87.30;;;;;;5100561;28;20639;-68
2021/05/23 09:26:49;;;;;;;0.70;0.70;;;19.40;80.20;;;;;;5102676;28;20792;-69
2021/05/23 09:29:18;;;;;;;0.70;0.63;;;19.10;84.20;;;;;;5095230;28;20717;-68
2021/05/23 09:31:47;;;;;;;1.53;0.70;;;19.10;85.70;;;;;;5103028;28;20709;-68
2021/05/23 09:34:21;;;;;;;1.60;0.80;;;18.80;82.00;;;;;;5104583;28;20637;-69
2021/05/23 09:36:48;;;;;;;1.17;0.83;;;18.40;83.70;;;;;;5090228;28;21003;-68
2021/05/23 09:39:16;;;;;;;0.80;0.80;;;18.20;84.20;;;;;;5099108;28;20733;-68
2021/05/23 09:41:44;;;;;;;0.77;0.77;;;17.70;82.90;;;;;;5104273;28;20733;-68
2021/05/23 09:44:16;;;;;;;1.08;0.95;;;17.20;83.80;;;;;;5101063;28;20216;-69
2021/05/23 09:46:51;;;;;;;3.53;1.73;;;16.70;86.30;;;;;;5105194;28;20227;-68
2021/05/23 09:49:18;;;;;;;0.98;0.98;;;16.40;87.70;;;;;;5099763;28;20192;-67
2021/05/23 09:51:50;;;;;;;1.75;1.13;;;15.90;87.50;;;;;;5104698;28;20207;-68
2021/05/23 09:54:17;;;;;;;1.60;1.50;;;15.60;89.00;;;;;;5105452;28;20290;-68
2021/05/23 09:56:43;;;;;;;0.77;0.77;;;15.10;89.90;;;;;;5100854;28;20203;-68
2021/05/23 09:59:18;;;;;;;1.15;1.15;;;14.70;90.80;;;;;;5106682;28;20298;-69
2021/05/23 10:01:45;;;;;;;1.48;0.98;;;14.30;92.00;;;;;;5101007;28;20203;-69
2021/05/23 10:04:18;;;;;;;1.02;0.63;;;14.00;93.20;;;;;;5101471;28;20291;-69
2021/05/23 10:06:45;;;;;;;1.15;0.88;;;13.70;94.00;;;;;;5103537;28;20827;-69
2021/05/23 10:09:11;;;;;;;0.75;0.70;;;13.60;95.40;;;;;;5099586;28;20291;-69
2021/05/23 10:11:39;;;;;;;1.30;0.85;;;13.60;96.10;;;;;;5101724;28;20195;-69
2021/05/23 10:14:05;;;;;;;0.80;0.80;;;14.00;96.20;;;;;;5100487;28;20218;-69
2021/05/23 10:16:33;;;;;;;1.20;0.60;;;15.30;97.40;;;;;;5106001;28;20214;-69
2021/05/23 10:19:00;;;;;;;0.73;0.57;;;17.00;93.40;;;;;;5106401;28;20352;-69
2021/05/23 10:21:27;;;;;;;0.50;0.40;;;18.30;88.20;;;;;;5099750;28;20273;-68
2021/05/23 10:23:58;;;;;;;1.07;0.60;;;19.00;84.80;;;;;;5104729;28;20661;-69
2021/05/23 10:26:27;;;;;;;0.80;0.60;;;19.50;86.00;;;;;;5106164;28;20676;-67
2021/05/23 10:28:55;;;;;;;0.97;0.70;;;19.20;79.20;;;;;;5101816;28;20648;-69
2021/05/23 10:31:29;;;;;;;0.77;0.70;;;18.80;81.80;;;;;;5098098;28;20624;-70
2021/05/23 10:33:56;;;;;;;0.60;0.60;;;19.20;84.50;;;;;;5095883;28;20644;-71
2021/05/23 10:36:33;;;;;;;0.80;0.60;;;19.40;83.70;;;;;;5104631;28;20729;-70
2021/05/23 10:39:02;;;;;;;1.30;0.67;;;19.50;85.00;;;;;;5098240;28;20605;-69
2021/05/23 10:41:28;;;;;;;0.67;0.40;;;19.00;76.00;;;;;;5102679;28;20625;-68
2021/05/23 10:44:00;;;;;;;0.80;0.80;;;18.20;76.30;;;;;;5095117;28;20989;-68
2021/05/23 10:46:27;;;;;;;1.60;0.80;;;17.80;78.50;;;;;;5102147;28;20681;-69
2021/05/23 10:49:00;;;;;;;0.70;0.50;;;17.30;80.10;;;;;;5097945;28;20223;-69
2021/05/23 10:51:28;;;;;;;1.10;0.90;;;16.80;80.80;;;;;;5102481;28;20638;-68
2021/05/23 10:53:55;;;;;;;1.58;1.48;;;16.40;82.60;;;;;;5099967;28;20200;-68
2021/05/23 10:56:24;;;;;;;1.67;0.70;;;16.50;86.10;;;;;;5104720;28;20265;-68
2021/05/23 10:58:55;;;;;;;3.33;1.30;;;16.60;85.50;;;;;;5105863;28;20288;-68
2021/05/23 11:01:43;;;;;;;1.80;1.00;;;16.80;85.00;;;;;;5105176;28;20207;-68
2021/05/23 11:04:15;;;;;;;1.55;1.27;;;17.10;84.30;;;;;;5098982;28;20578;-68
2021/05/23 11:06:47;;;;;;;0.70;0.70;;;17.50;86.90;;;;;;5102897;28;20871;-69
2021/05/23 11:09:15;;;;;;;1.15;0.60;;;17.80;83.90;;;;;;5104603;28;20242;-69
2021/05/23 11:11:43;;;;;;;3.33;0.80;;;18.20;83.70;;;;;;5103651;28;20207;-69
2021/05/23 11:14:18;;;;;;;1.90;0.80;;;18.20;81.80;;;;;;5103545;28;20311;-68
2021/05/23 11:16:47;;;;;;;0.90;0.90;;;17.80;80.00;;;;;;5106100;28;20659;-68
2021/05/23 11:19:13;;;;;;;0.80;0.80;;;17.40;81.90;;;;;;5108434;28;20264;-68
2021/05/23 11:21:41;;;;;;;0.73;0.73;;;17.30;84.10;;;;;;5107276;28;20204;-68
2021/05/23 11:24:08;;;;;;;0.60;0.60;;;16.60;83.30;;;;;;5106935;28;20294;-68
2021/05/23 11:26:35;;;;;;;1.00;1.00;;;16.10;86.00;;;;;;5105931;28;20227;-68
2021/05/23 11:29:03;;;;;;;0.70;0.70;;;15.70;89.00;;;;;;5107811;28;20957;-68
2021/05/23 11:31:30;;;;;;;0.80;0.80;;;15.70;90.90;;;;;;5107445;28;20286;-68
2021/05/23 11:33:58;;;;;;;1.40;1.30;;;16.00;89.70;;;;;;5108911;28;20200;-68
2021/05/23 11:36:27;;;;;;;0.90;0.90;;;16.70;89.40;;;;;;5107689;28;20708;-68
2021/05/23 11:38:55;;;;;;;1.23;0.90;;;17.20;86.70;;;;;;5104385;28;20302;-68
2021/05/23 11:41:32;;;;;;;1.13;1.02;;;17.40;84.90;;;;;;5108737;28;20329;-68
2021/05/23 11:43:59;;;;;;;3.38;2.80;;;17.70;84.00;;;;;;5106120;28;20199;-68
2021/05/23 11:46:27;;;;;;;0.63;0.63;;;18.20;85.30;;;;;;5104225;28;20676;-69
2021/05/23 11:48:54;;;;;;;0.80;0.80;;;18.80;81.90;;;;;;5106784;28;20320;-68
2021/05/23 11:51:24;;;;;;;1.40;1.30;;;19.10;79.20;;;;;;5108520;28;20311;-68
2021/05/23 11:53:53;;;;;;;0.73;0.60;;;19.30;81.50;;;;;;5103112;28;20625;-68
2021/05/23 11:56:21;;;;;;;0.70;0.70;;;19.40;77.60;;;;;;5105976;28;21021;-68
2021/05/23 11:58:49;;;;;;;0.57;0.57;;;19.10;75.40;;;;;;5103206;28;20728;-68
2021/05/23 12:01:18;;;;;;;1.07;0.43;;;19.10;77.50;;;;;;5096830;28;20641;-69
2021/05/23 12:03:58;;;;;;;0.83;0.60;;;19.10;73.20;;;;;;5103729;28;20697;-69
2021/05/23 12:06:26;;;;;;;0.63;0.63;;;18.90;71.90;;;;;;5105342;28;20628;-69
2021/05/23 12:08:53;;;;;;;0.70;0.70;;;19.00;74.60;;;;;;5101787;28;20644;-69
2021/05/23 12:11:21;;;;;;;0.70;0.70;;;19.10;75.70;;;;;;5108385;28;20632;-69
2021/05/23 12:13:48;;;;;;;0.60;0.60;;;19.00;76.70;;;;;;5107065;28;20668;-68
2021/05/23 12:16:17;;;;;;;1.40;0.73;;;19.00;76.10;;;;;;5100004;28;20210;-68
2021/05/23 12:18:44;;;;;;;0.90;0.70;;;18.80;72.70;;;;;;5107229;28;20254;-70
2021/05/23 12:21:13;;;;;;;1.25;0.73;;;18.60;77.70;;;;;;5105533;28;20326;-70
2021/05/23 12:23:41;;;;;;;0.65;0.65;;;18.50;78.10;;;;;;5107841;28;20791;-70
2021/05/23 12:26:12;;;;;;;1.70;0.70;;;18.90;79.20;;;;;;5101713;28;20199;-70
2021/05/23 12:28:42;;;;;;;0.93;0.50;;;19.00;77.40;;;;;;5096582;28;20784;-70
2021/05/23 12:31:10;;;;;;;1.08;1.02;;;19.20;76.00;;;;;;5107222;28;20214;-69
2021/05/23 12:33:38;;;;;;;1.25;0.60;;;19.20;73.80;;;;;;5108192;28;20204;-68
2021/05/23 12:36:10;;;;;;;0.75;0.75;;;19.20;70.10;;;;;;5104096;28;20210;-68
2021/05/23 12:38:38;;;;;;;1.10;1.00;;;19.10;70.10;;;;;;5097540;28;20280;-68
2021/05/23 12:41:07;;;;;;;0.77;0.70;;;19.00;72.70;;;;;;5107243;28;20199;-68
2021/05/23 12:43:35;;;;;;;1.73;1.10;;;19.00;70.90;;;;;;5101800;28;20243;-68
2021/05/23 12:46:04;;;;;;;0.60;0.60;;;19.00;71.50;;;;;;5105491;28;20199;-68
2021/05/23 12:48:32;;;;;;;0.70;0.70;;;19.10;69.40;;;;;;5100011;28;20531;-68
2021/05/23 12:51:00;;;;;;;0.68;0.68;;;19.00;74.00;;;;;;5100382;28;20232;-68